createdAt,value
2018-12-06T00:00:23.697Z,3.50
2018-12-06T00:03:11.383Z,3.40
2018-12-06T00:05:59.532Z,3.10
2018-12-06T00:08:47.196Z,3.90
2018-12-06T00:11:34.746Z,3.50
2018-12-06T00:14:22.580Z,3.60
2018-12-06T00:17:10.416Z,5.00
2018-12-06T00:19:58.004Z,3.60
2018-12-06T00:22:45.833Z,3.50
2018-12-06T00:25:33.368Z,2.90
2018-12-06T00:28:21.255Z,3.30
2018-12-06T00:31:08.924Z,2.60
2018-12-06T00:33:56.667Z,3.50
2018-12-06T00:36:44.556Z,4.20
2018-12-06T00:39:32.113Z,4.40
2018-12-06T00:42:19.689Z,3.70
2018-12-06T00:45:07.678Z,4.60
2018-12-06T00:47:55.244Z,3.50
2018-12-06T00:50:42.775Z,3.50
2018-12-06T00:53:30.633Z,4.80
2018-12-06T00:56:19.392Z,3.50
2018-12-06T00:59:07.258Z,3.50
2018-12-06T01:01:55.155Z,3.50
2018-12-06T01:04:43.089Z,4.20
2018-12-06T01:07:31.047Z,3.50
2018-12-06T01:10:18.886Z,5.30
2018-12-06T01:13:06.809Z,3.50
2018-12-06T01:15:54.356Z,4.20
2018-12-06T01:18:42.271Z,3.50
2018-12-06T01:21:29.839Z,3.60
2018-12-06T01:24:17.644Z,3.30
2018-12-06T01:27:05.584Z,3.60
2018-12-06T01:29:53.153Z,3.00
2018-12-06T01:32:40.775Z,3.40
2018-12-06T01:35:28.595Z,3.80
2018-12-06T01:37:57.120Z,3.20
2018-12-06T01:40:25.798Z,3.60
2018-12-06T01:43:13.363Z,3.60
2018-12-06T01:46:01.613Z,2.60
2018-12-06T01:48:49.537Z,3.40
2018-12-06T01:51:37.079Z,3.60
2018-12-06T01:54:24.940Z,3.50
2018-12-06T01:57:12.903Z,3.50
2018-12-06T02:00:00.448Z,3.60
2018-12-06T02:02:29.434Z,4.50
2018-12-06T02:04:58.272Z,3.50
2018-12-06T02:07:46.083Z,3.50
2018-12-06T04:12:23.383Z,2.80
2018-12-06T04:15:11.068Z,3.20
2018-12-06T04:17:59.021Z,3.30
2018-12-06T04:20:46.989Z,2.40
2018-12-06T04:23:34.588Z,5.40
2018-12-06T04:26:22.189Z,3.30
2018-12-06T04:29:10.191Z,3.30
2018-12-06T04:31:57.877Z,3.30
2018-12-06T04:34:26.468Z,4.40
2018-12-06T04:37:14.463Z,3.30
2018-12-06T04:40:02.220Z,4.60
2018-12-06T04:42:50.104Z,3.20
2018-12-06T04:45:37.786Z,3.20
2018-12-06T04:48:25.474Z,3.20
2018-12-06T04:51:13.304Z,2.10
2018-12-06T04:54:00.977Z,3.20
2018-12-06T04:56:48.988Z,3.30
2018-12-06T04:59:36.757Z,5.50
2018-12-06T05:02:25.162Z,3.10
2018-12-06T05:05:12.950Z,3.00
2018-12-06T05:08:00.773Z,3.50
2018-12-06T05:10:48.664Z,3.50
2018-12-06T05:13:36.706Z,3.50
2018-12-06T05:16:24.553Z,3.40
2018-12-06T05:19:12.245Z,3.90
2018-12-06T05:22:00.425Z,3.70
2018-12-06T05:24:47.975Z,3.50
2018-12-06T05:27:35.923Z,3.50
2018-12-06T05:30:23.844Z,4.20
2018-12-06T05:33:11.421Z,3.60
2018-12-06T05:35:59.134Z,4.10
2018-12-06T05:38:46.774Z,5.20
2018-12-06T05:41:35.150Z,2.40
2018-12-06T05:44:03.927Z,4.40
2018-12-06T05:46:51.614Z,3.50
2018-12-06T05:49:39.343Z,3.50
2018-12-06T05:52:26.933Z,3.30
2018-12-06T05:55:14.756Z,3.50
2018-12-06T05:58:02.380Z,3.60
2018-12-06T06:00:50.438Z,3.50
2018-12-06T06:03:38.032Z,3.00
2018-12-06T06:06:25.819Z,3.60
2018-12-06T06:09:13.524Z,2.90
2018-12-06T06:12:01.374Z,4.50
2018-12-06T06:14:49.301Z,5.40
2018-12-06T06:20:30.609Z,3.70
2018-12-06T06:23:18.498Z,3.90
2018-12-06T06:28:59.828Z,3.30
2018-12-06T06:37:21.989Z,3.80
2018-12-06T06:40:09.970Z,3.60
2018-12-06T06:42:57.585Z,4.50
2018-12-06T06:45:45.217Z,2.50
2018-12-06T06:48:33.044Z,4.20
2018-12-06T06:51:20.661Z,3.70
2018-12-06T06:54:08.237Z,5.40
2018-12-06T06:56:56.242Z,3.70
2018-12-06T06:59:43.949Z,3.30
2018-12-06T07:02:31.633Z,3.60
2018-12-06T07:05:19.545Z,3.60
2018-12-06T07:08:07.585Z,2.70
2018-12-06T07:10:55.535Z,3.70
2018-12-06T07:13:43.204Z,4.00
2018-12-06T07:16:30.789Z,3.70
2018-12-06T07:19:18.358Z,4.00
2018-12-06T07:22:05.933Z,3.90
2018-12-06T07:24:53.513Z,4.20
2018-12-06T07:27:41.505Z,5.60
2018-12-06T07:30:29.188Z,4.40
2018-12-06T07:33:16.785Z,4.00
2018-12-06T07:36:04.456Z,4.30
2018-12-06T07:38:52.141Z,3.90
2018-12-06T07:41:39.809Z,4.70
2018-12-06T07:44:08.368Z,5.00
2018-12-06T07:46:56.044Z,3.80
2018-12-06T07:49:44.325Z,3.90
2018-12-06T07:52:32.040Z,3.70
2018-12-06T07:55:19.641Z,5.50
2018-12-06T07:58:07.621Z,4.00
2018-12-06T08:00:48.320Z,3.20
2018-12-06T08:03:28.158Z,4.10
2018-12-06T08:06:08.841Z,4.40
2018-12-06T08:08:49.589Z,5.30
2018-12-06T08:11:30.124Z,6.00
2018-12-06T08:14:10.391Z,4.00
2018-12-06T08:19:33.953Z,5.30
2018-12-06T08:22:14.187Z,3.70
2018-12-06T08:24:54.852Z,3.80
2018-12-06T08:27:35.633Z,4.30
2018-12-06T08:30:16.290Z,5.00
2018-12-06T08:32:56.845Z,4.00
2018-12-06T08:35:37.582Z,4.10
2018-12-06T08:38:18.257Z,6.20
2018-12-06T08:40:58.150Z,4.40
2018-12-06T08:43:38.811Z,5.40
2018-12-06T08:46:19.141Z,3.50
2018-12-06T08:49:02.982Z,4.30
2018-12-06T08:51:41.250Z,3.40
2018-12-06T08:54:22.122Z,4.60
2018-12-06T08:57:02.150Z,6.20
2018-12-06T08:59:42.842Z,4.50
2018-12-06T09:02:23.379Z,4.70
2018-12-06T09:05:03.622Z,6.30
2018-12-06T09:07:44.018Z,3.90
2018-12-06T09:10:25.084Z,4.20
2018-12-06T09:13:05.348Z,4.60
2018-12-06T09:15:45.974Z,4.60
2018-12-06T09:18:26.574Z,5.10
2018-12-06T09:21:07.206Z,4.60
2018-12-06T09:23:47.576Z,5.50
2018-12-06T09:26:16.106Z,5.50
2018-12-06T09:29:03.778Z,4.60
2018-12-06T09:31:51.504Z,4.50
2018-12-06T09:34:39.194Z,4.80
2018-12-06T09:37:26.922Z,4.60
2018-12-06T09:40:14.605Z,5.20
2018-12-06T09:43:02.293Z,4.60
2018-12-06T09:48:43.886Z,4.60
2018-12-06T09:51:31.850Z,3.70
2018-12-06T09:54:19.689Z,4.30
2018-12-06T09:57:07.324Z,4.90
2018-12-06T10:02:49.093Z,4.80
2018-12-06T10:05:36.961Z,4.90
2018-12-06T10:08:24.906Z,3.90
2018-12-06T10:11:12.495Z,4.90
2018-12-06T10:14:00.181Z,5.10
2018-12-06T10:16:47.897Z,4.90
2018-12-06T10:19:35.569Z,5.10
2018-12-06T10:22:23.262Z,6.40
2018-12-06T10:25:11.295Z,5.10
2018-12-06T10:27:59.232Z,5.20
2018-12-06T10:30:46.934Z,6.60
2018-12-06T10:33:15.364Z,6.40
2018-12-06T10:36:03.053Z,5.10
2018-12-06T10:38:50.904Z,5.10
2018-12-06T10:41:38.841Z,4.80
2018-12-06T10:44:45.544Z,5.20
2018-12-06T10:47:33.566Z,5.20
2018-12-06T10:50:21.226Z,7.20
2018-12-06T10:53:09.020Z,5.30
2018-12-06T10:55:56.664Z,5.40
2018-12-06T11:01:57.515Z,6.40
2018-12-06T11:04:45.455Z,5.70
2018-12-06T11:07:33.150Z,5.70
2018-12-06T11:10:20.857Z,5.80
2018-12-06T11:13:08.461Z,6.00
2018-12-06T11:15:56.166Z,6.00
2018-12-06T11:18:43.981Z,7.40
2018-12-06T11:21:31.608Z,5.90
2018-12-06T11:24:19.480Z,5.40
2018-12-06T11:27:07.096Z,5.80
2018-12-06T11:29:54.796Z,5.60
2018-12-06T11:32:42.782Z,6.10
2018-12-06T11:35:30.470Z,6.90
2018-12-06T11:38:18.429Z,6.90
2018-12-06T11:41:06.407Z,5.80
2018-12-06T11:43:54.105Z,5.90
2018-12-06T11:46:41.808Z,8.40
2018-12-06T11:49:29.691Z,6.70
2018-12-06T11:52:17.402Z,6.70
2018-12-06T11:55:05.161Z,6.70
2018-12-06T12:00:46.754Z,6.70
2018-12-06T12:03:34.460Z,6.50
2018-12-06T12:06:22.147Z,6.60
2018-12-06T12:09:10.164Z,6.60
2018-12-06T12:11:58.103Z,7.00
2018-12-06T12:14:45.824Z,7.00
2018-12-06T12:17:33.445Z,7.00
2018-12-06T12:20:21.417Z,7.20
2018-12-06T12:23:09.118Z,8.50
2018-12-06T12:25:56.705Z,7.30
2018-12-06T12:28:45.004Z,7.40
2018-12-06T12:31:32.949Z,7.90
2018-12-06T12:34:20.557Z,7.50
2018-12-06T12:37:08.221Z,7.50
2018-12-06T12:39:55.813Z,7.50
2018-12-06T12:42:43.397Z,7.50
2018-12-06T12:45:31.080Z,7.60
2018-12-06T12:48:19.040Z,7.60
2018-12-06T12:51:06.833Z,7.70
2018-12-06T12:53:55.095Z,7.70
2018-12-06T12:56:23.761Z,7.20
2018-12-06T12:59:11.405Z,7.90
2018-12-06T13:01:59.377Z,8.00
2018-12-06T13:04:47.463Z,8.20
2018-12-06T13:07:35.652Z,7.90
2018-12-06T13:10:23.505Z,7.90
2018-12-06T13:12:52.228Z,9.40
2018-12-06T13:15:40.218Z,8.50
2018-12-06T13:18:09.485Z,8.30
2018-12-06T13:20:38.435Z,8.40
2018-12-06T13:23:26.501Z,8.40
2018-12-06T13:26:14.290Z,8.40
2018-12-06T13:29:02.013Z,9.30
2018-12-06T13:31:50.253Z,8.40
2018-12-06T13:34:37.952Z,10.10
2018-12-06T13:37:25.531Z,8.60
2018-12-06T13:39:54.102Z,8.60
2018-12-06T13:42:42.065Z,8.60
2018-12-06T13:45:29.814Z,7.60
2018-12-06T13:48:17.822Z,8.70
2018-12-06T13:51:05.569Z,10.40
2018-12-06T13:53:53.522Z,11.00
2018-12-06T13:56:41.321Z,8.80
2018-12-06T13:59:29.278Z,9.20
2018-12-06T14:02:17.005Z,8.80
2018-12-06T14:05:04.855Z,8.90
2018-12-06T14:07:52.445Z,8.90
2018-12-06T14:10:40.166Z,8.90
2018-12-06T14:13:28.242Z,8.20
2018-12-06T14:16:15.953Z,9.00
2018-12-06T14:19:05.516Z,9.00
2018-12-06T14:21:56.565Z,9.00
2018-12-06T14:24:44.404Z,9.00
2018-12-06T14:27:32.189Z,9.10
2018-12-06T14:30:19.877Z,8.90
2018-12-06T14:33:07.755Z,9.00
2018-12-06T14:35:55.531Z,8.50
2018-12-06T14:38:43.381Z,9.00
2018-12-06T14:41:31.122Z,9.10
2018-12-06T14:44:19.216Z,9.00
2018-12-06T14:47:06.966Z,9.10
2018-12-06T14:49:55.034Z,10.80
2018-12-06T14:52:42.733Z,9.10
2018-12-06T14:55:30.836Z,9.90
2018-12-06T14:58:18.580Z,8.60
2018-12-06T15:01:06.268Z,9.10
2018-12-06T15:03:54.081Z,9.10
2018-12-06T15:06:41.924Z,9.10
2018-12-06T15:09:29.913Z,9.20
2018-12-06T15:12:17.633Z,8.50
2018-12-06T15:15:05.562Z,9.20
2018-12-06T15:17:54.367Z,9.70
2018-12-06T15:20:42.053Z,8.90
2018-12-06T15:23:29.662Z,9.30
2018-12-06T15:26:17.493Z,8.90
2018-12-06T15:29:05.397Z,9.30
2018-12-06T15:31:53.224Z,9.20
2018-12-06T15:34:41.139Z,10.80
2018-12-06T15:37:29.338Z,9.50
2018-12-06T15:40:17.483Z,8.80
2018-12-06T15:43:05.497Z,8.40
2018-12-06T15:45:34.437Z,9.30
2018-12-06T15:48:22.061Z,9.30
2018-12-06T15:51:10.046Z,9.00
2018-12-06T15:53:58.025Z,9.10
2018-12-06T15:56:45.987Z,9.30
2018-12-06T15:59:33.697Z,9.30
2018-12-06T16:02:22.056Z,9.80
2018-12-06T16:05:09.882Z,9.30
2018-12-06T16:07:57.873Z,9.30
2018-12-06T16:10:45.756Z,9.30
2018-12-06T16:13:33.508Z,9.30
2018-12-06T16:16:02.328Z,9.30
2018-12-06T16:18:50.381Z,9.30
2018-12-06T16:21:38.166Z,9.30
2018-12-06T16:24:26.249Z,9.30
2018-12-06T16:27:13.924Z,9.40
2018-12-06T16:30:01.968Z,10.50
2018-12-06T16:32:49.736Z,9.30
2018-12-06T16:35:37.907Z,8.90
2018-12-06T16:38:25.590Z,8.40
2018-12-06T16:41:13.568Z,10.40
2018-12-06T16:44:01.717Z,9.00
2018-12-06T16:46:49.372Z,9.00
2018-12-06T16:49:37.077Z,9.20
2018-12-06T16:52:24.689Z,10.00
2018-12-06T16:55:12.633Z,9.30
2018-12-06T16:58:00.415Z,9.30
2018-12-06T17:00:48.405Z,9.30
2018-12-06T17:03:36.365Z,10.80
2018-12-06T17:06:24.320Z,9.30
2018-12-06T17:09:12.433Z,9.30
2018-12-06T17:12:00.046Z,10.50
2018-12-06T17:14:47.901Z,9.30
2018-12-06T17:17:35.833Z,9.30
2018-12-06T17:20:23.638Z,8.80
2018-12-06T17:23:11.441Z,9.20
2018-12-06T17:25:59.163Z,8.90
2018-12-06T17:28:27.819Z,9.10
2018-12-06T17:31:15.568Z,9.10
2018-12-06T17:34:03.603Z,10.60
2018-12-06T17:39:46.794Z,8.10
2018-12-06T17:45:29.034Z,8.90
2018-12-06T17:48:16.760Z,8.40
2018-12-06T17:51:04.468Z,8.90
2018-12-06T17:53:54.186Z,8.80
2018-12-06T17:56:23.042Z,9.50
2018-12-06T17:59:10.954Z,9.60
2018-12-06T18:01:59.024Z,8.10
2018-12-06T18:04:47.004Z,8.90
2018-12-06T18:07:35.007Z,8.20
2018-12-06T18:10:23.057Z,8.90
2018-12-06T18:13:11.090Z,8.40
2018-12-06T18:15:58.801Z,8.50
2018-12-06T18:18:46.648Z,8.10
2018-12-06T18:21:34.288Z,11.10
2018-12-06T18:24:22.110Z,8.60
2018-12-06T18:27:09.938Z,8.70
2018-12-06T18:29:58.228Z,9.00
2018-12-06T18:32:46.209Z,9.00
2018-12-06T18:35:34.207Z,9.70
2018-12-06T18:38:22.775Z,9.10
2018-12-06T18:41:10.557Z,8.70
2018-12-06T18:43:58.803Z,10.00
2018-12-06T18:46:46.728Z,8.70
2018-12-06T18:49:34.697Z,8.60
2018-12-06T18:52:22.557Z,9.10
2018-12-06T18:55:10.390Z,9.80
2018-12-06T18:57:58.541Z,9.70
2018-12-06T19:00:46.431Z,9.10
2018-12-06T19:03:34.131Z,9.10
2018-12-06T19:06:43.333Z,9.60
2018-12-06T19:09:31.054Z,9.10
2018-12-06T19:11:59.950Z,9.10
2018-12-06T19:14:48.126Z,9.10
2018-12-06T19:17:35.946Z,9.10
2018-12-06T19:20:24.067Z,9.90
2018-12-06T19:23:12.136Z,8.40
2018-12-06T19:25:59.875Z,8.40
2018-12-06T19:28:47.592Z,9.90
2018-12-06T19:31:38.350Z,8.80
2018-12-06T19:34:26.666Z,10.00
2018-12-06T19:37:18.965Z,9.60
2018-12-06T19:40:06.972Z,9.10
2018-12-06T19:42:54.996Z,9.20
2018-12-06T19:45:24.160Z,8.30
2018-12-06T19:47:53.727Z,8.30
2018-12-06T19:50:41.502Z,9.20
2018-12-06T19:53:29.177Z,8.10
2018-12-06T19:56:17.459Z,8.90
2018-12-06T19:59:05.703Z,8.70
2018-12-06T20:01:53.769Z,9.00
2018-12-06T20:04:41.626Z,9.20
2018-12-06T20:07:29.308Z,9.10
2018-12-06T20:10:17.017Z,9.10
2018-12-06T20:13:04.688Z,9.10
2018-12-06T20:15:52.831Z,8.40
2018-12-06T20:18:40.615Z,9.20
2018-12-06T20:21:09.657Z,9.10
2018-12-06T20:23:57.462Z,9.20
2018-12-06T20:26:45.414Z,10.50
2018-12-06T20:29:34.642Z,10.00
2018-12-06T20:32:22.946Z,9.10
2018-12-06T20:35:10.855Z,7.30
2018-12-06T20:37:58.672Z,10.00
2018-12-06T20:40:46.373Z,9.10
2018-12-06T20:43:34.181Z,9.30
2018-12-06T20:46:22.030Z,8.40
2018-12-06T20:49:09.700Z,9.20
2018-12-06T20:51:57.397Z,9.60
2018-12-06T20:54:45.065Z,8.90
2018-12-06T20:57:37.279Z,10.50
2018-12-06T21:00:22.891Z,8.70
2018-12-06T21:03:10.629Z,9.30
2018-12-06T21:05:58.288Z,9.40
2018-12-06T21:08:27.017Z,8.20
2018-12-06T21:11:14.851Z,9.20
2018-12-06T21:14:03.186Z,7.90
2018-12-06T21:16:51.241Z,9.10
2018-12-06T21:19:19.939Z,9.20
2018-12-06T21:22:08.029Z,9.10
2018-12-06T21:24:56.195Z,8.00
2018-12-06T21:27:43.909Z,9.10
2018-12-06T21:30:31.939Z,9.80
2018-12-06T21:33:21.293Z,8.80
2018-12-06T21:36:09.234Z,9.30
2018-12-06T21:38:56.871Z,9.10
2018-12-06T21:41:45.125Z,8.70
2018-12-06T21:44:53.453Z,9.70
2018-12-06T21:47:41.084Z,9.90
2018-12-06T21:50:28.687Z,9.40
2018-12-06T21:53:16.640Z,9.70
2018-12-06T21:56:04.573Z,9.90
2018-12-06T21:58:52.228Z,9.80
2018-12-06T22:01:40.456Z,8.60
2018-12-06T22:04:28.203Z,9.50
2018-12-06T22:07:15.885Z,10.30
2018-12-06T22:10:03.972Z,9.60
2018-12-06T22:12:51.690Z,9.20
2018-12-06T22:15:39.260Z,9.60
2018-12-06T22:18:26.839Z,9.90
2018-12-06T22:21:14.405Z,10.00
2018-12-06T22:24:02.442Z,9.70
2018-12-06T22:26:30.920Z,9.30
2018-12-06T22:29:18.602Z,9.80
2018-12-06T22:32:06.231Z,10.00
2018-12-06T22:34:53.854Z,9.60
2018-12-06T22:37:41.436Z,9.60
2018-12-06T22:40:29.157Z,9.00
2018-12-06T22:43:17.047Z,11.40
2018-12-06T22:46:04.778Z,9.80
2018-12-06T22:51:07.788Z,9.70
2018-12-06T22:53:55.900Z,11.50
2018-12-06T22:56:43.922Z,10.50
2018-12-06T22:59:31.959Z,9.70
2018-12-06T23:02:19.763Z,9.70
2018-12-06T23:05:07.725Z,9.70
2018-12-06T23:07:55.550Z,9.70
2018-12-06T23:13:37.289Z,9.70
2018-12-06T23:16:06.184Z,9.70
2018-12-06T23:18:53.881Z,9.70
2018-12-06T23:21:49.073Z,9.40
2018-12-06T23:30:12.122Z,9.90
2018-12-06T23:32:59.759Z,9.80
2018-12-06T23:35:47.362Z,10.90
2018-12-06T23:38:34.936Z,9.40
2018-12-06T23:41:22.872Z,9.80
2018-12-06T23:44:10.535Z,10.00
2018-12-06T23:46:58.922Z,9.20
2018-12-06T23:49:46.915Z,11.40
2018-12-06T23:52:34.661Z,9.90
2018-12-06T23:55:22.396Z,9.90
2018-12-06T23:58:09.976Z,11.30
